Time;durP1;ratioP1;P1;durP2;ratioP2;P2;SDS_P1;SDS_P2;PMS_P1;PMS_P2;Temp;Humidity;BMP_temperature;BMP_pressure;BME280_temperature;BME280_humidity;BME280_pressure;Samples;Min_cycle;Max_cycle;Signal;HPM_P1;HPM_P2
2024/03/12 00:01:08;;;;;;;33.15;20.27;;;9.90;99.90;;;;;;6246529;23;20447;-71
2024/03/12 00:03:42;;;;;;;28.02;20.25;;;9.90;99.90;;;;;;6246481;23;20001;-71
2024/03/12 00:06:09;;;;;;;40.63;21.77;;;9.90;99.90;;;;;;6246366;23;20462;-71
2024/03/12 00:08:36;;;;;;;30.23;19.30;;;9.90;99.90;;;;;;6246486;23;20092;-71
2024/03/12 00:11:03;;;;;;;30.42;18.70;;;9.90;99.90;;;;;;6246343;23;20026;-71
2024/03/12 00:13:29;;;;;;;29.00;19.50;;;9.90;99.90;;;;;;6246467;23;20419;-72
2024/03/12 00:15:56;;;;;;;23.60;17.75;;;9.90;99.90;;;;;;6246317;23;20044;-71
2024/03/12 00:18:25;;;;;;;29.30;17.33;;;9.80;99.90;;;;;;6246323;23;20004;-71
2024/03/12 00:20:53;;;;;;;23.70;16.45;;;9.80;99.90;;;;;;6246110;23;20026;-71
2024/03/12 00:23:19;;;;;;;30.27;17.42;;;9.80;99.90;;;;;;6246390;23;20426;-71
2024/03/12 00:25:44;;;;;;;25.35;16.92;;;9.80;99.90;;;;;;6246116;23;20006;-71
2024/03/12 00:28:11;;;;;;;30.13;17.17;;;9.80;99.90;;;;;;6246343;23;20015;-71
2024/03/12 00:30:44;;;;;;;22.50;16.60;;;9.80;99.90;;;;;;6246750;23;20008;-72
2024/03/12 00:33:10;;;;;;;26.40;17.45;;;9.80;99.90;;;;;;6246363;23;20004;-71
2024/03/12 00:35:36;;;;;;;21.40;16.13;;;9.80;99.90;;;;;;6245435;23;20012;-71
2024/03/12 00:38:05;;;;;;;22.75;15.65;;;9.80;99.90;;;;;;6246329;23;19996;-72
2024/03/12 00:40:35;;;;;;;26.13;16.77;;;9.80;99.90;;;;;;6246975;23;20474;-72
2024/03/12 00:43:02;;;;;;;24.20;16.23;;;9.70;99.90;;;;;;6246953;23;20067;-72
2024/03/12 00:45:36;;;;;;;26.52;16.02;;;9.80;99.90;;;;;;6247140;23;20054;-72
2024/03/12 00:48:06;;;;;;;25.13;17.00;;;9.80;99.90;;;;;;6246933;23;20047;-71
2024/03/12 00:51:08;;;;;;;24.70;17.35;;;9.70;99.90;;;;;;6246683;23;20485;-72
2024/03/12 01:00:28;;;;;;;28.00;16.38;;;9.70;99.90;;;;;;6246802;23;20099;-72
2024/03/12 01:02:58;;;;;;;24.77;16.27;;;9.70;99.90;;;;;;6246266;23;20004;-71
2024/03/12 01:09:07;;;;;;;24.80;15.15;;;9.70;99.90;;;;;;6065444;23;20011;-71
2024/03/12 01:12:10;;;;;;;23.35;16.65;;;9.60;99.90;;;;;;6065827;23;20007;-71
2024/03/12 01:14:37;;;;;;;23.25;15.45;;;9.70;99.90;;;;;;6123380;23;20486;-71
2024/03/12 01:17:06;;;;;;;25.02;16.02;;;9.60;99.90;;;;;;6123453;23;20326;-71
2024/03/12 01:19:33;;;;;;;23.83;16.55;;;9.60;99.90;;;;;;6165380;22;20327;-71
2024/03/12 01:21:59;;;;;;;23.05;17.17;;;9.60;99.90;;;;;;6276790;22;20082;-71
2024/03/12 01:24:28;;;;;;;21.30;16.80;;;9.60;99.90;;;;;;6276764;22;20028;-71
2024/03/12 01:26:55;;;;;;;21.50;16.33;;;9.60;99.90;;;;;;6249463;22;20256;-72
2024/03/12 01:29:22;;;;;;;26.63;17.50;;;9.60;99.90;;;;;;6276620;22;19999;-72
2024/03/12 01:31:50;;;;;;;22.00;17.27;;;9.60;99.90;;;;;;6276205;22;20000;-71
2024/03/12 01:34:18;;;;;;;23.40;16.48;;;9.60;99.90;;;;;;6276379;22;20355;-71
2024/03/12 01:36:47;;;;;;;21.23;16.10;;;9.60;99.90;;;;;;6276200;22;20003;-71
2024/03/12 01:39:16;;;;;;;22.52;16.88;;;9.60;99.90;;;;;;6276458;22;20007;-71
2024/03/12 01:41:44;;;;;;;23.48;15.00;;;9.60;99.90;;;;;;6276750;22;20011;-71
2024/03/12 01:44:11;;;;;;;19.17;13.32;;;9.60;99.90;;;;;;6276267;22;20456;-71
2024/03/12 01:46:37;;;;;;;22.48;12.77;;;9.70;99.90;;;;;;6276823;22;20318;-71
2024/03/12 01:49:08;;;;;;;18.42;12.80;;;9.60;99.90;;;;;;6276284;22;19996;-71
2024/03/12 01:51:35;;;;;;;20.60;12.87;;;9.60;99.90;;;;;;6276446;22;20441;-71
2024/03/12 01:54:03;;;;;;;16.95;12.57;;;9.60;99.90;;;;;;6276156;22;20233;-71
2024/03/12 01:56:32;;;;;;;14.70;11.73;;;9.60;99.90;;;;;;6276125;22;20007;-71
2024/03/12 01:58:58;;;;;;;26.88;12.75;;;9.60;99.90;;;;;;6273049;22;20369;-71
2024/03/12 02:01:27;;;;;;;17.95;12.25;;;9.60;99.90;;;;;;6272749;22;20014;-71
2024/03/12 02:03:54;;;;;;;19.95;12.45;;;9.60;99.90;;;;;;6273225;22;20014;-71
2024/03/12 02:06:21;;;;;;;24.25;13.05;;;9.60;99.90;;;;;;6275409;22;20489;-71
2024/03/12 02:08:52;;;;;;;22.42;11.48;;;9.60;99.90;;;;;;6276033;22;20493;-71
2024/03/12 02:11:19;;;;;;;18.33;11.00;;;9.60;99.90;;;;;;6276290;22;20031;-72
2024/03/12 02:13:45;;;;;;;17.50;12.05;;;9.60;99.90;;;;;;6275458;22;20004;-72
2024/03/12 02:16:12;;;;;;;16.90;11.48;;;9.60;99.90;;;;;;6275760;22;20066;-71
2024/03/12 02:18:38;;;;;;;20.38;11.93;;;9.60;99.90;;;;;;6276268;22;20389;-72
2024/03/12 02:21:05;;;;;;;20.92;11.68;;;9.60;99.90;;;;;;6276095;22;20004;-71
2024/03/12 02:23:40;;;;;;;15.57;11.10;;;9.60;99.90;;;;;;6276782;22;20390;-70
2024/03/12 02:26:07;;;;;;;14.75;10.73;;;9.60;99.90;;;;;;6276623;22;20333;-72
2024/03/12 02:28:33;;;;;;;18.03;10.00;;;9.60;99.90;;;;;;6276617;22;20330;-72
2024/03/12 02:46:12;;;;;;;17.67;12.33;;;9.50;99.90;;;;;;5953811;24;20009;-71
2024/03/12 02:48:41;;;;;;;19.17;12.90;;;9.50;99.90;;;;;;5882634;24;20038;-72
2024/03/12 02:51:08;;;;;;;20.17;13.83;;;9.50;99.90;;;;;;5987214;23;20059;-71
2024/03/12 02:56:36;;;;;;;18.90;12.85;;;9.50;99.90;;;;;;6144367;23;20042;-72
2024/03/12 02:59:03;;;;;;;18.92;13.18;;;9.50;99.90;;;;;;6175012;22;20000;-71
2024/03/12 03:01:28;;;;;;;19.90;11.87;;;9.40;99.90;;;;;;6278189;22;20027;-72
2024/03/12 03:03:56;;;;;;;19.43;12.03;;;9.40;99.90;;;;;;6277789;22;20053;-71
2024/03/12 03:06:24;;;;;;;19.48;12.52;;;9.30;99.90;;;;;;6277825;22;19995;-71
2024/03/12 03:08:51;;;;;;;21.13;13.23;;;9.30;99.90;;;;;;6277872;22;20372;-71
2024/03/12 03:11:17;;;;;;;20.60;13.13;;;9.30;99.90;;;;;;6277808;22;20000;-71
2024/03/12 03:13:43;;;;;;;18.37;12.10;;;9.20;99.90;;;;;;6277858;22;20452;-72
2024/03/12 03:16:08;;;;;;;17.27;12.33;;;9.30;99.90;;;;;;6277616;22;20008;-71
2024/03/12 03:18:34;;;;;;;17.60;12.37;;;9.30;99.90;;;;;;6277525;22;20003;-71
2024/03/12 03:21:01;;;;;;;18.03;12.97;;;9.20;99.90;;;;;;6277814;22;20042;-71
2024/03/12 03:23:26;;;;;;;21.53;12.17;;;9.20;99.90;;;;;;6277534;22;20474;-72
2024/03/12 03:25:52;;;;;;;16.80;12.80;;;9.20;99.90;;;;;;6277569;22;20023;-72
2024/03/12 03:28:18;;;;;;;23.30;12.87;;;9.20;99.90;;;;;;6277450;22;20012;-72
2024/03/12 03:30:44;;;;;;;18.67;12.60;;;9.20;99.90;;;;;;6277478;22;20010;-72
2024/03/12 03:33:11;;;;;;;16.87;11.07;;;9.20;99.90;;;;;;6277376;22;20003;-71
2024/03/12 03:35:37;;;;;;;16.90;11.87;;;9.20;99.90;;;;;;6277215;22;20489;-71
2024/03/12 03:38:05;;;;;;;21.63;12.18;;;9.20;99.90;;;;;;6277436;22;20322;-72
2024/03/12 03:40:33;;;;;;;19.10;11.27;;;9.20;99.90;;;;;;6277294;22;20007;-71
2024/03/12 03:42:59;;;;;;;17.07;11.57;;;9.20;99.90;;;;;;6276881;22;20075;-72
2024/03/12 03:45:25;;;;;;;15.40;12.07;;;9.20;99.90;;;;;;6277505;22;19999;-72
2024/03/12 03:47:51;;;;;;;15.67;10.13;;;9.10;99.90;;;;;;6277529;22;20006;-71
2024/03/12 03:50:17;;;;;;;17.60;11.50;;;9.10;99.90;;;;;;6277306;22;19996;-71
2024/03/12 03:52:43;;;;;;;16.37;9.67;;;9.10;99.90;;;;;;6277368;22;20000;-71
2024/03/12 03:55:09;;;;;;;13.80;8.90;;;9.10;99.90;;;;;;6277339;22;20485;-71
2024/03/12 03:57:36;;;;;;;14.27;8.87;;;9.10;99.90;;;;;;6276553;22;20004;-72
2024/03/12 04:00:12;;;;;;;11.10;7.50;;;9.10;99.90;;;;;;6274670;22;20387;-72
2024/03/12 04:02:39;;;;;;;11.90;8.50;;;9.10;99.90;;;;;;6275096;22;20379;-71
2024/03/12 04:05:07;;;;;;;11.90;8.13;;;9.20;99.90;;;;;;6277389;22;20004;-71
2024/03/12 04:07:33;;;;;;;12.05;7.63;;;9.10;99.90;;;;;;6277806;22;20003;-72
2024/03/12 04:09:59;;;;;;;14.53;7.70;;;9.10;99.90;;;;;;6277080;22;20098;-71
2024/03/12 04:12:25;;;;;;;11.97;8.27;;;9.10;99.90;;;;;;6277337;22;20452;-71
2024/03/12 04:16:16;;;;;;;12.93;8.47;;;9.10;99.90;;;;;;6277905;22;20091;-72
2024/03/12 04:19:32;;;;;;;11.73;7.60;;;9.10;99.90;;;;;;6124441;23;20029;-71
2024/03/12 04:28:54;;;;;;;14.53;11.00;;;9.10;99.90;;;;;;6124889;23;20057;-71
2024/03/12 04:31:31;;;;;;;14.87;11.00;;;9.00;99.90;;;;;;6124434;23;20006;-72
2024/03/12 04:38:10;;;;;;;14.20;9.93;;;9.00;99.90;;;;;;5981282;23;20024;-71
2024/03/12 04:40:36;;;;;;;15.60;11.70;;;8.90;99.90;;;;;;5959524;24;20384;-71
2024/03/12 04:43:02;;;;;;;14.33;10.70;;;8.90;99.90;;;;;;6224331;23;20500;-71
2024/03/12 04:45:28;;;;;;;17.07;11.13;;;8.90;99.90;;;;;;6246603;23;20026;-71
2024/03/12 04:47:54;;;;;;;16.70;10.90;;;8.90;99.90;;;;;;6246448;23;19996;-72
2024/03/12 04:50:22;;;;;;;18.57;12.13;;;8.90;99.90;;;;;;6246701;23;20330;-71
2024/03/12 04:52:52;;;;;;;17.70;11.97;;;8.80;99.90;;;;;;6246002;23;20334;-72
2024/03/12 04:55:18;;;;;;;20.57;11.73;;;8.80;99.90;;;;;;6245451;23;20039;-72
2024/03/12 04:57:43;;;;;;;18.13;11.37;;;8.90;99.90;;;;;;6246020;23;20441;-71
2024/03/12 05:00:19;;;;;;;16.67;11.47;;;8.90;99.90;;;;;;6246704;23;20008;-72
2024/03/12 05:02:51;;;;;;;15.53;10.53;;;8.90;99.90;;;;;;6244354;23;20000;-72
2024/03/12 05:05:20;;;;;;;15.65;10.55;;;8.80;99.90;;;;;;6243796;23;20447;-72
2024/03/12 05:07:47;;;;;;;17.53;10.43;;;8.80;99.90;;;;;;6245508;23;20537;-72
2024/03/12 05:10:16;;;;;;;15.73;10.40;;;8.80;99.90;;;;;;6244883;23;20036;-72
2024/03/12 05:12:43;;;;;;;14.33;8.93;;;8.80;99.90;;;;;;6244439;23;20040;-72
2024/03/12 05:15:11;;;;;;;14.00;9.33;;;8.80;99.90;;;;;;6243597;23;20012;-72
2024/03/12 05:17:40;;;;;;;15.67;8.83;;;8.80;99.90;;;;;;6244414;23;20377;-72
2024/03/12 05:20:09;;;;;;;14.90;9.27;;;8.80;99.90;;;;;;6264427;22;20074;-72
2024/03/12 05:22:36;;;;;;;14.40;9.13;;;8.80;99.90;;;;;;6274844;22;20002;-71
2024/03/12 05:25:03;;;;;;;12.40;9.37;;;8.80;99.90;;;;;;6274945;22;20028;-71
2024/03/12 05:27:37;;;;;;;19.07;9.87;;;8.80;99.90;;;;;;6276294;22;20314;-72
2024/03/12 05:30:10;;;;;;;14.50;8.90;;;8.80;99.90;;;;;;6276440;22;20000;-72
2024/03/12 05:32:43;;;;;;;19.07;9.47;;;8.80;99.90;;;;;;6276689;22;20338;-72
2024/03/12 05:35:22;;;;;;;10.07;8.97;;;8.80;99.90;;;;;;6276282;22;20012;-71
2024/03/12 05:38:01;;;;;;;12.10;9.20;;;8.80;99.90;;;;;;6276886;22;20079;-72
2024/03/12 05:40:43;;;;;;;13.97;9.03;;;8.80;99.90;;;;;;6276675;22;20003;-71
2024/03/12 05:48:40;;;;;;;16.87;10.47;;;8.70;99.90;;;;;;6277099;22;20010;-72
2024/03/12 05:51:08;;;;;;;15.43;10.17;;;8.80;99.90;;;;;;6276938;22;20070;-72
2024/03/12 05:53:39;;;;;;;16.00;10.67;;;8.70;99.90;;;;;;6277097;22;20330;-72
2024/03/12 05:56:59;;;;;;;;;;;;;;;;;;;;;
2024/03/12 05:59:25;;;;;;;13.27;9.40;;;8.80;99.90;;;;;;6173574;22;20528;-72
2024/03/12 06:02:18;;;;;;;15.03;10.27;;;8.70;99.90;;;;;;6276850;22;20007;-71
2024/03/12 06:16:07;;;;;;;17.23;12.07;;;8.70;99.90;;;;;;5924743;24;20021;-72
2024/03/12 06:19:08;;;;;;;17.07;11.20;;;8.70;99.90;;;;;;5924976;24;20121;-72
2024/03/12 06:21:37;;;;;;;16.87;12.20;;;8.80;99.90;;;;;;5923151;24;20095;-71
2024/03/12 06:24:05;;;;;;;19.10;12.20;;;8.80;99.90;;;;;;5924938;24;20360;-72
2024/03/12 06:26:31;;;;;;;16.80;12.03;;;8.80;99.90;;;;;;6070267;23;20010;-72
2024/03/12 06:28:57;;;;;;;16.47;11.00;;;8.80;99.90;;;;;;6218244;23;20028;-72
2024/03/12 06:31:23;;;;;;;14.43;12.10;;;8.80;99.90;;;;;;6245421;23;20072;-72
2024/03/12 06:33:49;;;;;;;16.93;11.57;;;8.90;99.90;;;;;;6245232;23;20007;-72
2024/03/12 06:36:15;;;;;;;17.27;11.73;;;8.90;99.90;;;;;;6245554;23;20012;-72
2024/03/12 06:38:41;;;;;;;15.97;10.53;;;8.90;99.90;;;;;;6245648;23;20004;-72
2024/03/12 06:41:10;;;;;;;19.00;11.13;;;9.00;99.90;;;;;;6245076;23;20034;-72
2024/03/12 06:43:40;;;;;;;15.27;11.10;;;9.00;99.90;;;;;;6245559;23;20004;-72
2024/03/12 06:46:11;;;;;;;14.03;10.93;;;9.00;99.90;;;;;;6245198;23;20122;-72
2024/03/12 06:48:38;;;;;;;17.57;10.83;;;9.10;99.90;;;;;;6245412;23;20446;-72
2024/03/12 06:51:06;;;;;;;14.87;10.30;;;9.10;99.90;;;;;;6244939;23;20453;-72
2024/03/12 06:53:35;;;;;;;12.80;9.90;;;9.10;99.90;;;;;;6245456;23;20042;-71
2024/03/12 06:56:04;;;;;;;13.70;9.40;;;9.20;99.90;;;;;;6244572;23;20016;-72
2024/03/12 06:58:30;;;;;;;12.83;9.47;;;9.20;99.90;;;;;;6245091;23;20485;-72
2024/03/12 07:00:57;;;;;;;13.70;9.13;;;9.30;99.90;;;;;;6218051;23;20004;-72
2024/03/12 07:03:24;;;;;;;16.67;9.47;;;9.30;99.90;;;;;;6245437;23;20440;-71
2024/03/12 07:05:52;;;;;;;14.00;9.57;;;9.40;99.90;;;;;;6245565;23;20012;-71
2024/03/12 07:08:21;;;;;;;13.03;9.23;;;9.40;99.90;;;;;;6245207;23;20062;-72
2024/03/12 07:10:48;;;;;;;19.87;9.83;;;9.50;99.90;;;;;;6245217;23;20608;-71
2024/03/12 07:13:14;;;;;;;12.13;8.30;;;9.50;99.90;;;;;;6245304;23;19997;-71
2024/03/12 07:15:42;;;;;;;13.40;8.90;;;9.60;99.90;;;;;;6244736;23;20016;-72
2024/03/12 07:18:08;;;;;;;19.57;9.53;;;9.70;99.90;;;;;;6246165;23;20012;-72
2024/03/12 07:20:36;;;;;;;10.20;7.35;;;9.70;99.90;;;;;;6246706;23;20008;-72
2024/03/12 07:23:03;;;;;;;12.67;7.27;;;9.80;99.90;;;;;;6265004;22;20465;-72
2024/03/12 07:25:32;;;;;;;13.27;7.25;;;9.80;99.90;;;;;;6277547;22;20000;-71
2024/03/12 07:28:01;;;;;;;14.90;6.50;;;9.80;99.90;;;;;;6277545;22;20080;-72
2024/03/12 07:30:27;;;;;;;12.23;6.68;;;9.90;99.90;;;;;;6278587;22;20369;-71
2024/03/12 07:32:53;;;;;;;10.98;6.28;;;9.90;99.90;;;;;;6277788;22;20004;-71
2024/03/12 07:35:19;;;;;;;8.55;5.38;;;9.90;99.90;;;;;;6277582;22;20086;-72
2024/03/12 07:38:02;;;;;;;10.20;5.35;;;10.00;99.90;;;;;;6277923;22;20003;-71
2024/03/12 07:44:57;;;;;;;17.27;6.30;;;10.00;99.90;;;;;;6095184;23;20025;-72
2024/03/12 07:51:25;;;;;;;21.45;8.00;;;10.10;99.90;;;;;;5981440;24;20020;-71
2024/03/12 07:54:42;;;;;;;23.55;8.52;;;10.20;99.90;;;;;;5980564;24;20436;-71
2024/03/12 07:57:16;;;;;;;24.73;8.68;;;10.30;99.90;;;;;;5957842;23;20014;-72
2024/03/12 08:03:28;;;;;;;24.92;7.97;;;10.40;99.90;;;;;;6094487;23;20010;-72
2024/03/12 08:06:05;;;;;;;17.17;6.53;;;10.50;99.90;;;;;;6085920;23;20006;-72
2024/03/12 08:08:31;;;;;;;27.55;6.95;;;10.60;99.90;;;;;;6240193;22;20326;-71
2024/03/12 08:10:57;;;;;;;11.18;5.70;;;10.60;99.90;;;;;;6277013;22;19999;-71
2024/03/12 08:13:25;;;;;;;11.20;5.65;;;10.60;99.90;;;;;;6277001;22;20000;-71
2024/03/12 08:15:51;;;;;;;16.77;6.05;;;10.70;99.90;;;;;;6277013;22;20104;-71
2024/03/12 08:18:17;;;;;;;13.30;5.70;;;10.80;99.90;;;;;;6276852;22;19999;-71
2024/03/12 08:20:45;;;;;;;13.82;5.32;;;10.80;99.90;;;;;;6276862;22;20000;-72
2024/03/12 08:23:13;;;;;;;14.02;6.10;;;10.90;99.90;;;;;;6249796;22;20022;-71
2024/03/12 08:25:38;;;;;;;16.10;5.65;;;10.90;99.90;;;;;;6276740;22;20007;-71
2024/03/12 08:28:04;;;;;;;12.85;4.97;;;10.90;99.90;;;;;;6276778;22;19999;-71
2024/03/12 08:30:31;;;;;;;11.30;4.00;;;11.00;99.90;;;;;;6275876;22;19999;-71
2024/03/12 08:32:58;;;;;;;13.20;3.28;;;11.00;99.90;;;;;;6275413;22;19999;-72
2024/03/12 08:35:24;;;;;;;10.55;3.75;;;11.00;99.90;;;;;;6276330;22;20019;-71
2024/03/12 08:37:50;;;;;;;13.60;4.35;;;11.10;99.90;;;;;;6277433;22;20053;-72
2024/03/12 08:40:15;;;;;;;13.93;3.40;;;11.10;99.90;;;;;;6277468;22;20004;-72
2024/03/12 08:42:41;;;;;;;11.90;4.00;;;11.10;99.90;;;;;;6276973;22;20027;-71
2024/03/12 08:45:08;;;;;;;7.93;3.60;;;11.10;99.90;;;;;;6277008;22;20046;-71
2024/03/12 08:47:35;;;;;;;12.13;3.72;;;11.10;99.90;;;;;;6276742;22;20368;-71
2024/03/12 08:50:02;;;;;;;14.52;3.80;;;11.20;99.90;;;;;;6276278;22;19999;-71
2024/03/12 08:52:29;;;;;;;10.75;3.47;;;11.20;99.90;;;;;;6249441;22;20434;-71
2024/03/12 08:54:55;;;;;;;15.85;4.03;;;11.20;99.90;;;;;;6276417;22;20011;-71
2024/03/12 08:57:21;;;;;;;8.27;3.80;;;11.20;99.90;;;;;;6249651;22;20003;-72
2024/03/12 08:59:47;;;;;;;7.55;3.55;;;11.20;99.90;;;;;;6276769;22;20125;-72
2024/03/12 09:02:14;;;;;;;10.80;3.50;;;11.20;99.90;;;;;;6276460;22;20010;-71
2024/03/12 09:04:40;;;;;;;9.48;3.17;;;11.20;99.90;;;;;;6276696;22;19996;-71
2024/03/12 09:07:07;;;;;;;10.25;3.35;;;11.30;99.90;;;;;;6276937;22;20014;-71
2024/03/12 09:09:32;;;;;;;10.27;3.55;;;11.30;99.90;;;;;;6277883;22;20374;-71
2024/03/12 09:11:58;;;;;;;7.25;2.90;;;11.30;99.90;;;;;;6277428;22;20027;-72
2024/03/12 09:14:27;;;;;;;8.93;3.53;;;11.40;99.90;;;;;;6277280;22;19995;-72
2024/03/12 09:17:05;;;;;;;9.85;3.05;;;11.40;99.90;;;;;;6277164;22;20334;-72
2024/03/12 09:41:00;;;;;;;6.45;2.80;;;11.60;99.90;;;;;;6153301;23;20347;-72
2024/03/12 09:43:44;;;;;;;7.90;3.10;;;11.60;99.90;;;;;;6151937;23;20006;-72
2024/03/12 09:46:16;;;;;;;7.15;2.67;;;11.70;99.90;;;;;;6152940;23;20372;-71
2024/03/12 09:48:44;;;;;;;4.53;2.88;;;11.70;99.90;;;;;;6153197;23;20373;-71
2024/03/12 09:51:13;;;;;;;7.80;3.15;;;11.80;99.90;;;;;;6190967;23;20008;-72
2024/03/12 09:53:41;;;;;;;7.13;3.00;;;11.80;99.90;;;;;;6245614;23;20030;-71
2024/03/12 09:56:07;;;;;;;7.70;3.00;;;11.90;99.90;;;;;;6245744;23;20066;-71
2024/03/12 09:58:44;;;;;;;7.85;2.80;;;11.90;99.90;;;;;;6244360;23;20083;-72
2024/03/12 10:01:12;;;;;;;7.38;2.95;;;12.00;99.90;;;;;;6245504;23;20075;-72
2024/03/12 10:03:38;;;;;;;8.10;2.60;;;12.00;99.90;;;;;;6245303;23;20000;-71
2024/03/12 10:06:05;;;;;;;7.55;3.15;;;12.00;99.90;;;;;;6245397;23;20300;-71
2024/03/12 10:08:31;;;;;;;6.72;2.75;;;12.10;99.90;;;;;;6243970;23;20012;-71
2024/03/12 10:10:57;;;;;;;7.43;3.10;;;12.00;99.90;;;;;;6244966;23;20007;-72
2024/03/12 10:13:23;;;;;;;4.88;2.63;;;12.10;99.90;;;;;;6243893;23;20023;-71
2024/03/12 10:15:56;;;;;;;8.15;2.78;;;12.10;99.90;;;;;;6242301;23;20438;-72
2024/03/12 10:18:22;;;;;;;5.30;2.80;;;12.10;99.90;;;;;;6242213;23;20008;-73
2024/03/12 10:20:56;;;;;;;6.07;3.00;;;12.20;99.90;;;;;;6243713;23;20024;-72
2024/03/12 10:23:33;;;;;;;8.20;2.83;;;12.20;99.90;;;;;;6244610;23;20025;-72
2024/03/12 10:26:10;;;;;;;8.82;3.22;;;12.20;99.90;;;;;;6247722;22;20411;-73
2024/03/12 10:28:39;;;;;;;15.50;3.72;;;12.30;99.90;;;;;;6248393;22;20011;-74
2024/03/12 10:31:10;;;;;;;16.55;3.88;;;12.30;99.90;;;;;;6275546;22;20000;-71
2024/03/12 10:33:37;;;;;;;13.07;4.00;;;12.30;99.90;;;;;;6273318;22;20007;-73
2024/03/12 10:36:04;;;;;;;7.50;3.45;;;12.30;99.90;;;;;;6271712;22;20016;-72
2024/03/12 10:38:33;;;;;;;11.80;3.92;;;12.30;99.90;;;;;;6273806;22;20390;-72
2024/03/12 10:41:15;;;;;;;8.80;3.35;;;12.40;99.90;;;;;;6275842;22;20011;-73
2024/03/12 10:43:41;;;;;;;8.68;4.22;;;12.40;99.90;;;;;;6248641;22;20016;-73
2024/03/12 10:46:10;;;;;;;11.13;4.25;;;12.50;99.90;;;;;;6275685;22;20046;-72
2024/03/12 10:48:38;;;;;;;8.07;4.07;;;12.50;99.90;;;;;;6275943;22;20083;-72
2024/03/12 10:51:04;;;;;;;7.75;4.13;;;12.50;99.90;;;;;;6275888;22;20083;-73
2024/03/12 10:53:30;;;;;;;10.80;3.90;;;12.50;99.90;;;;;;6278142;22;20065;-72
2024/03/12 10:55:58;;;;;;;8.32;5.47;;;12.60;99.90;;;;;;6278067;22;20016;-72
2024/03/12 10:58:25;;;;;;;9.98;4.78;;;12.60;99.90;;;;;;6277988;22;20057;-74
2024/03/12 11:01:40;;;;;;;17.35;5.38;;;12.70;99.90;;;;;;6278120;22;20000;-72
2024/03/12 11:04:44;;;;;;;10.85;5.68;;;12.80;99.90;;;;;;6152290;23;20360;-73
2024/03/12 11:07:16;;;;;;;13.98;5.82;;;12.80;99.90;;;;;;6151997;23;20033;-72
2024/03/12 11:09:48;;;;;;;12.52;6.68;;;12.90;99.90;;;;;;6266207;22;20007;-75
2024/03/12 11:13:12;;;;;;;8.70;5.47;;;12.90;99.90;;;;;;6277662;22;20381;-75
2024/03/12 11:18:39;;;;;;;8.25;4.82;;;13.00;99.90;;;;;;6306410;22;20019;-73
2024/03/12 11:21:10;;;;;;;8.43;4.53;;;13.10;99.90;;;;;;6309141;22;20332;-75
2024/03/12 11:23:39;;;;;;;10.10;4.65;;;13.10;99.90;;;;;;6308237;22;20386;-75
2024/03/12 11:27:03;;;;;;;9.52;4.50;;;13.10;99.90;;;;;;6307975;22;19995;-75
2024/03/12 11:33:01;;;;;;;9.38;4.97;;;13.30;99.90;;;;;;6182591;22;20091;-75
2024/03/12 11:35:32;;;;;;;8.88;4.70;;;13.40;99.90;;;;;;6337389;22;20340;-75
2024/03/12 11:38:07;;;;;;;10.60;5.97;;;13.60;99.90;;;;;;6339951;22;20324;-75
2024/03/12 11:41:09;;;;;;;14.30;5.88;;;13.60;99.90;;;;;;6339491;22;20345;-73
2024/03/12 11:43:41;;;;;;;11.00;5.47;;;13.60;99.90;;;;;;6339380;22;20385;-73
2024/03/12 11:50:34;;;;;;;9.20;6.30;;;13.70;99.90;;;;;;6094330;23;20010;-74
2024/03/12 11:53:14;;;;;;;9.98;6.60;;;13.80;99.90;;;;;;6100493;23;20013;-73
2024/03/12 11:56:10;;;;;;;13.38;6.95;;;13.80;99.90;;;;;;6183792;23;20016;-73
2024/03/12 11:58:47;;;;;;;11.55;7.75;;;13.80;99.90;;;;;;6339504;22;20002;-72
2024/03/12 12:01:18;;;;;;;10.63;6.53;;;13.90;99.90;;;;;;6338982;22;20325;-73
2024/03/12 12:03:45;;;;;;;10.85;7.00;;;14.00;99.90;;;;;;6339207;22;19999;-73
2024/03/12 12:06:11;;;;;;;10.57;5.93;;;14.10;99.90;;;;;;6339359;22;20366;-74
2024/03/12 12:08:37;;;;;;;11.10;6.60;;;14.10;99.90;;;;;;6338956;22;20025;-73
2024/03/12 12:11:12;;;;;;;11.52;6.65;;;14.20;99.90;;;;;;6339644;22;20321;-74
2024/03/12 12:13:41;;;;;;;9.38;6.10;;;14.20;99.90;;;;;;6339462;22;20498;-74
2024/03/12 12:16:14;;;;;;;11.05;6.53;;;14.20;99.90;;;;;;6339655;22;20432;-74
2024/03/12 12:18:40;;;;;;;11.73;6.35;;;14.10;99.90;;;;;;6339672;22;20010;-74
2024/03/12 12:21:15;;;;;;;10.85;7.03;;;14.10;99.90;;;;;;6339727;22;20002;-74
2024/03/12 12:23:43;;;;;;;9.02;6.50;;;14.10;99.90;;;;;;6339519;22;20061;-73
2024/03/12 12:26:12;;;;;;;10.70;6.15;;;14.10;99.90;;;;;;6311550;22;19998;-73
2024/03/12 12:28:39;;;;;;;9.68;6.20;;;14.10;99.90;;;;;;6339616;22;20027;-73
2024/03/12 12:31:09;;;;;;;12.00;6.22;;;14.00;99.90;;;;;;6339556;22;20463;-72
2024/03/12 12:33:38;;;;;;;11.70;6.97;;;14.00;99.90;;;;;;6339410;22;20005;-73
2024/03/12 12:36:10;;;;;;;14.75;7.13;;;14.10;99.90;;;;;;6339213;22;20343;-73
2024/03/12 12:38:36;;;;;;;12.15;7.22;;;14.10;99.90;;;;;;6339940;22;20003;-73
2024/03/12 12:41:04;;;;;;;10.88;6.45;;;14.00;99.90;;;;;;6339975;22;20003;-73
2024/03/12 12:43:32;;;;;;;11.10;6.20;;;14.00;99.90;;;;;;6339985;22;19994;-74
2024/03/12 12:46:00;;;;;;;10.77;6.40;;;14.20;99.90;;;;;;6339606;22;19999;-73
2024/03/12 12:48:29;;;;;;;9.80;6.18;;;14.30;99.90;;;;;;6312495;22;20086;-73
2024/03/12 12:50:59;;;;;;;10.60;5.35;;;14.40;99.90;;;;;;6341567;22;20009;-74
2024/03/12 12:53:26;;;;;;;9.90;5.88;;;14.50;99.90;;;;;;6340214;22;20003;-73
2024/03/12 12:55:58;;;;;;;15.10;5.93;;;14.50;99.90;;;;;;6339779;22;20394;-74
2024/03/12 12:58:26;;;;;;;10.68;5.43;;;14.60;99.90;;;;;;6339065;22;20007;-74
2024/03/12 13:01:11;;;;;;;10.05;5.45;;;14.70;99.90;;;;;;6338828;22;20030;-74
2024/03/12 13:03:45;;;;;;;8.93;5.32;;;14.70;99.90;;;;;;6339564;22;20073;-74
2024/03/12 13:20:39;;;;;;;8.20;4.65;;;15.30;99.90;;;;;;6123760;23;20464;-73
2024/03/12 13:23:39;;;;;;;;;;;15.30;99.90;;;;;;6122981;23;20010;-74
2024/03/12 13:29:31;;;;;;;7.40;4.60;;;15.50;99.40;;;;;;5981909;23;20043;-74
2024/03/12 13:31:58;;;;;;;11.45;5.45;;;15.50;99.90;;;;;;6093950;23;20005;-73
2024/03/12 13:34:24;;;;;;;9.70;4.40;;;15.60;99.90;;;;;;6179583;23;20299;-73
2024/03/12 13:36:51;;;;;;;9.65;4.40;;;15.60;99.10;;;;;;6300402;22;20422;-73
2024/03/12 13:39:19;;;;;;;7.53;4.15;;;15.60;99.70;;;;;;6338750;22;20324;-73
2024/03/12 13:41:44;;;;;;;9.00;5.03;;;15.60;97.10;;;;;;6338531;22;20385;-73
2024/03/12 13:44:13;;;;;;;14.55;5.55;;;15.60;99.20;;;;;;6338369;22;19995;-74
2024/03/12 13:46:39;;;;;;;8.57;5.38;;;15.50;98.80;;;;;;6310364;22;20391;-74
2024/03/12 13:49:13;;;;;;;11.55;5.32;;;15.50;99.90;;;;;;6310618;22;20008;-73
2024/03/12 13:51:39;;;;;;;9.40;5.55;;;15.50;99.90;;;;;;6337893;22;19998;-73
2024/03/12 13:54:08;;;;;;;7.80;4.75;;;15.50;99.90;;;;;;6337841;22;19999;-75
2024/03/12 13:56:37;;;;;;;7.68;5.05;;;15.50;99.90;;;;;;6337723;22;20309;-73
2024/03/12 13:59:06;;;;;;;11.80;5.40;;;15.70;99.90;;;;;;6338125;22;20005;-73
2024/03/12 14:01:32;;;;;;;10.82;5.57;;;15.70;99.90;;;;;;6338157;22;20257;-73
2024/03/12 14:03:58;;;;;;;7.88;4.63;;;15.70;99.10;;;;;;6338424;22;19995;-73
2024/03/12 14:06:24;;;;;;;9.68;4.82;;;15.70;99.80;;;;;;6338283;22;20006;-74
2024/03/12 14:08:50;;;;;;;7.60;4.72;;;15.70;98.60;;;;;;6338321;22;20003;-74
2024/03/12 14:11:16;;;;;;;10.55;5.07;;;15.70;99.00;;;;;;6338022;22;20491;-73
2024/03/12 14:13:42;;;;;;;7.70;5.05;;;15.70;98.20;;;;;;6338158;22;19999;-73
2024/03/12 14:16:09;;;;;;;9.00;4.57;;;15.70;98.70;;;;;;6338183;22;20027;-74
2024/03/12 14:18:37;;;;;;;9.15;5.07;;;15.70;99.30;;;;;;6338070;22;20432;-74
2024/03/12 14:21:04;;;;;;;9.45;5.50;;;15.80;99.30;;;;;;6337995;22;20321;-74
2024/03/12 14:23:31;;;;;;;7.80;4.53;;;15.80;99.90;;;;;;6336890;22;19999;-74
2024/03/12 14:25:56;;;;;;;8.45;5.03;;;15.80;99.90;;;;;;6338508;22;20003;-74
2024/03/12 14:28:22;;;;;;;9.70;5.45;;;15.70;99.80;;;;;;6337130;22;20006;-73
2024/03/12 14:30:48;;;;;;;9.90;5.82;;;15.70;99.90;;;;;;6338147;22;20321;-74
2024/03/12 14:33:14;;;;;;;8.45;5.63;;;15.60;99.90;;;;;;6338184;22;19999;-74
2024/03/12 14:35:40;;;;;;;8.68;4.90;;;15.50;99.90;;;;;;6337033;22;20007;-74
2024/03/12 14:38:05;;;;;;;9.80;5.15;;;15.40;99.90;;;;;;6336911;22;20027;-74
2024/03/12 14:40:31;;;;;;;8.52;4.75;;;15.40;99.90;;;;;;6338097;22;20006;-74
2024/03/12 14:42:57;;;;;;;8.38;4.68;;;15.30;99.90;;;;;;6339055;22;20002;-74
2024/03/12 14:45:29;;;;;;;11.25;5.65;;;15.30;99.90;;;;;;6338963;22;20328;-74
2024/03/12 14:48:42;;;;;;;12.38;5.30;;;15.20;99.90;;;;;;6338571;22;20383;-74
2024/03/12 14:51:08;;;;;;;11.85;5.22;;;15.20;99.90;;;;;;6212869;23;20031;-74
2024/03/12 14:54:29;;;;;;;9.18;5.45;;;15.10;99.90;;;;;;6213372;23;20386;-75
2024/03/12 15:11:03;;;;;;;10.85;6.22;;;15.00;99.90;;;;;;5935214;24;20019;-74
2024/03/12 15:13:29;;;;;;;11.10;5.80;;;14.90;99.90;;;;;;6173340;22;20090;-74